Olcott, New York
Current Conditions -  °F | °C
As of 7:00 AM on Thursday 27 Nov 2014 (Local Time) from KIAG Reporting Station
Overcast Overcast  
Wind Chill: 29°   Ceiling: 5000
Heat Index: 29°   Visibility: 10mi
Dew Point: 21°   Wind: 0mph
Humidity: 72%   Direction: NA
Pressure: 30.04"   Gusts: NA
Location:  43.34°N, 78.71°W
Report Text: KIAG 271200Z 00000KT 10SM OVC050 M02/M06 A3004 RMK AO2 T10171061
Loading
Personal Weather Stations






























Interactive Weather Map New forecast layout! Learn more

10-Day Weather Forecast

Advertisements
Track Severe Weather on mobile